Time;durP1;ratioP1;P1;durP2;ratioP2;P2;SDS_P1;SDS_P2;PMS_P1;PMS_P2;Temp;Humidity;BMP_temperature;BMP_pressure;BME280_temperature;BME280_humidity;BME280_pressure;Samples;Min_cycle;Max_cycle;Signal;HPM_P1;HPM_P2
2024/01/22 00:01:41;;;;;;;25.52;3.72;;;10.10;99.90;;;;;;5066720;28;20067;-50
2024/01/22 00:04:07;;;;;;;29.95;5.32;;;10.10;99.90;;;;;;5066591;28;20114;-50
2024/01/22 00:06:36;;;;;;;28.27;3.88;;;10.10;99.90;;;;;;5066670;28;20033;-49
2024/01/22 00:09:02;;;;;;;25.10;4.40;;;10.10;99.90;;;;;;5066599;28;20040;-47
2024/01/22 00:11:28;;;;;;;24.00;3.78;;;10.00;99.90;;;;;;5065674;28;20024;-48
2024/01/22 00:13:55;;;;;;;26.38;4.40;;;10.00;99.90;;;;;;5066283;28;20088;-48
2024/01/22 00:16:20;;;;;;;26.35;4.28;;;10.00;99.90;;;;;;5065915;28;20049;-47
2024/01/22 00:18:46;;;;;;;29.63;4.47;;;10.00;99.90;;;;;;5066537;28;20322;-48
2024/01/22 00:21:12;;;;;;;25.92;4.00;;;10.00;99.90;;;;;;5066116;28;20033;-49
2024/01/22 00:23:37;;;;;;;30.23;4.30;;;10.00;99.90;;;;;;5065069;28;20392;-47
2024/01/22 00:26:03;;;;;;;23.33;3.72;;;10.10;99.90;;;;;;5065567;28;20025;-48
2024/01/22 00:28:29;;;;;;;27.95;5.10;;;10.10;99.90;;;;;;5066308;28;20282;-47
2024/01/22 00:30:55;;;;;;;31.25;5.10;;;10.10;99.90;;;;;;5066202;28;20021;-46
2024/01/22 00:33:20;;;;;;;32.33;4.72;;;10.10;99.90;;;;;;5066169;28;20091;-47
2024/01/22 00:35:46;;;;;;;32.70;4.85;;;10.10;99.90;;;;;;5066261;28;20028;-47
2024/01/22 00:38:11;;;;;;;23.02;4.07;;;10.10;99.90;;;;;;5066199;28;20028;-47
2024/01/22 00:40:37;;;;;;;33.83;4.95;;;10.20;99.90;;;;;;5066306;28;20017;-47
2024/01/22 00:43:03;;;;;;;29.38;5.40;;;10.10;99.90;;;;;;5066010;28;20095;-50
2024/01/22 00:45:29;;;;;;;26.15;3.83;;;10.10;99.90;;;;;;5066104;28;20039;-49
2024/01/22 00:47:54;;;;;;;27.23;4.20;;;10.00;99.90;;;;;;5065966;28;20255;-50
2024/01/22 00:50:20;;;;;;;22.45;5.45;;;10.00;99.90;;;;;;5065959;28;20040;-49
2024/01/22 00:52:46;;;;;;;25.73;3.80;;;9.90;99.90;;;;;;5065663;28;20029;-48
2024/01/22 00:55:11;;;;;;;25.80;4.72;;;9.90;99.90;;;;;;5065998;28;20043;-47
2024/01/22 00:57:38;;;;;;;29.70;4.40;;;9.80;99.90;;;;;;5065831;28;20028;-50
2024/01/22 01:00:05;;;;;;;26.77;4.88;;;9.80;99.90;;;;;;5065620;28;20294;-49
2024/01/22 01:02:31;;;;;;;25.58;4.85;;;9.70;99.90;;;;;;5065615;28;20062;-48
2024/01/22 01:04:56;;;;;;;26.33;4.50;;;9.70;99.90;;;;;;5065796;28;20231;-48
2024/01/22 01:07:23;;;;;;;21.40;3.83;;;9.70;99.90;;;;;;5064612;28;20036;-49
2024/01/22 01:09:49;;;;;;;29.85;4.70;;;9.70;99.90;;;;;;5065683;28;20286;-50
2024/01/22 01:12:15;;;;;;;20.20;4.10;;;9.80;99.90;;;;;;5065366;28;20028;-50
2024/01/22 01:14:40;;;;;;;20.23;4.05;;;9.80;99.90;;;;;;5065293;28;20088;-48
2024/01/22 01:17:06;;;;;;;24.38;4.82;;;9.80;99.90;;;;;;5065728;28;20337;-47
2024/01/22 01:19:31;;;;;;;28.55;4.28;;;9.80;99.90;;;;;;5065541;28;20044;-48
2024/01/22 01:21:57;;;;;;;27.92;4.97;;;9.90;99.90;;;;;;5065449;28;20290;-48
2024/01/22 01:24:23;;;;;;;23.70;3.85;;;9.90;99.90;;;;;;5065481;28;20178;-47
2024/01/22 01:26:48;;;;;;;14.98;2.80;;;9.80;99.90;;;;;;5065666;28;20172;-48
2024/01/22 01:29:14;;;;;;;20.95;3.63;;;9.70;99.90;;;;;;5065666;28;20028;-46
2024/01/22 01:31:40;;;;;;;13.88;3.42;;;9.60;99.90;;;;;;5065437;28;20032;-46
2024/01/22 01:34:06;;;;;;;21.17;3.05;;;9.50;99.90;;;;;;5065294;28;20039;-47
2024/01/22 01:36:32;;;;;;;17.05;3.58;;;9.50;99.90;;;;;;5065395;28;20110;-47
2024/01/22 01:38:57;;;;;;;21.85;3.15;;;9.40;99.90;;;;;;5065488;28;20290;-50
2024/01/22 01:41:23;;;;;;;18.67;3.53;;;9.40;99.90;;;;;;5065480;28;20025;-50
2024/01/22 01:43:48;;;;;;;16.95;3.35;;;9.30;99.90;;;;;;5065010;28;20028;-49
2024/01/22 01:46:14;;;;;;;17.95;2.95;;;9.30;99.90;;;;;;5064907;28;20044;-48
2024/01/22 01:48:40;;;;;;;20.08;3.78;;;9.30;99.90;;;;;;5065077;28;20021;-48
2024/01/22 01:51:06;;;;;;;19.45;3.50;;;9.20;99.90;;;;;;5064281;28;20053;-50
2024/01/22 01:53:32;;;;;;;17.70;3.08;;;9.20;99.90;;;;;;5065044;28;20207;-50
2024/01/22 01:55:58;;;;;;;16.23;3.28;;;9.10;99.90;;;;;;5065047;28;20029;-47
2024/01/22 01:58:24;;;;;;;21.98;3.33;;;9.10;99.90;;;;;;5065258;28;20044;-50
2024/01/22 02:00:50;;;;;;;23.15;3.15;;;9.10;99.90;;;;;;5065147;28;20029;-50
2024/01/22 02:03:15;;;;;;;25.38;4.55;;;9.20;99.90;;;;;;5047355;28;20031;-50
2024/01/22 02:05:41;;;;;;;21.20;3.40;;;9.10;99.90;;;;;;5068005;28;20167;-48
2024/01/22 02:08:07;;;;;;;21.30;4.63;;;9.10;99.90;;;;;;5068808;28;20036;-49
2024/01/22 02:10:32;;;;;;;16.95;3.78;;;9.10;99.90;;;;;;5068835;28;20009;-49
2024/01/22 02:12:58;;;;;;;22.55;3.67;;;9.10;99.90;;;;;;5068816;28;20036;-50
2024/01/22 02:15:24;;;;;;;30.77;4.00;;;9.10;99.90;;;;;;5068192;28;20111;-50
2024/01/22 02:17:49;;;;;;;24.73;4.03;;;9.10;99.90;;;;;;5067476;28;20021;-49
2024/01/22 02:20:15;;;;;;;12.30;2.72;;;9.20;99.90;;;;;;5068653;28;20035;-47
2024/01/22 02:22:41;;;;;;;16.17;3.13;;;9.30;99.90;;;;;;5068605;28;20032;-47
2024/01/22 02:25:07;;;;;;;19.80;4.03;;;9.20;99.90;;;;;;5067627;28;20020;-47
2024/01/22 02:27:32;;;;;;;27.00;4.97;;;9.30;99.90;;;;;;5068526;28;20078;-49
2024/01/22 02:29:58;;;;;;;22.40;3.78;;;9.30;99.90;;;;;;5068615;28;20025;-48
2024/01/22 02:32:23;;;;;;;20.63;2.95;;;9.30;99.90;;;;;;5068458;28;20105;-48
2024/01/22 02:34:49;;;;;;;23.92;3.97;;;9.20;99.90;;;;;;5068482;28;20033;-47
2024/01/22 02:37:15;;;;;;;23.63;3.53;;;9.20;99.90;;;;;;5068493;28;20047;-48
2024/01/22 02:39:41;;;;;;;15.88;3.20;;;9.10;99.90;;;;;;5067439;28;20279;-47
2024/01/22 02:42:07;;;;;;;17.73;3.95;;;9.10;99.90;;;;;;5068217;28;20171;-49
2024/01/22 02:44:35;;;;;;;21.35;3.33;;;9.10;99.90;;;;;;5068289;28;20016;-48
2024/01/22 02:47:02;;;;;;;22.55;3.38;;;9.10;99.90;;;;;;5068230;28;20071;-50
2024/01/22 02:49:27;;;;;;;19.15;3.50;;;9.10;99.90;;;;;;5067889;28;20107;-48
2024/01/22 02:51:53;;;;;;;16.70;3.50;;;9.20;99.90;;;;;;5067962;28;20025;-50
2024/01/22 02:54:19;;;;;;;14.77;3.15;;;9.10;99.90;;;;;;5068111;28;20095;-50
2024/01/22 02:56:44;;;;;;;23.05;3.67;;;9.20;99.90;;;;;;5068295;28;20020;-49
2024/01/22 02:59:10;;;;;;;24.00;4.25;;;9.10;99.90;;;;;;5068095;28;20059;-48
2024/01/22 03:01:36;;;;;;;22.02;3.25;;;9.20;99.90;;;;;;5067885;28;20017;-50
2024/01/22 03:04:01;;;;;;;26.38;4.05;;;9.20;99.90;;;;;;5066740;28;20028;-49
2024/01/22 03:06:27;;;;;;;22.08;3.28;;;9.20;99.90;;;;;;5067444;28;20052;-50
2024/01/22 03:08:53;;;;;;;20.85;3.53;;;9.30;99.90;;;;;;5067816;28;20044;-50
2024/01/22 03:11:18;;;;;;;19.30;3.45;;;9.30;99.90;;;;;;5067651;28;20039;-50
2024/01/22 03:13:44;;;;;;;17.48;4.53;;;9.30;99.90;;;;;;5067463;28;20040;-50
2024/01/22 03:16:10;;;;;;;20.45;3.35;;;9.30;99.90;;;;;;5067077;28;20061;-51
2024/01/22 03:18:35;;;;;;;22.98;3.83;;;9.30;99.90;;;;;;5067659;28;20033;-47
2024/01/22 03:21:04;;;;;;;16.75;3.42;;;9.30;99.90;;;;;;5067112;28;20036;-47
2024/01/22 03:23:30;;;;;;;20.50;3.90;;;9.30;99.90;;;;;;5066560;28;20036;-47
2024/01/22 03:25:56;;;;;;;31.20;5.38;;;9.30;99.90;;;;;;5067290;28;20021;-48
2024/01/22 03:28:22;;;;;;;28.33;4.28;;;9.30;99.90;;;;;;5067339;28;20179;-47
2024/01/22 03:30:48;;;;;;;23.20;3.45;;;9.30;99.90;;;;;;5067426;28;20229;-47
2024/01/22 03:33:15;;;;;;;20.60;3.40;;;9.30;99.90;;;;;;5066425;28;20275;-48
2024/01/22 03:35:40;;;;;;;25.05;3.72;;;9.30;99.90;;;;;;5067249;28;20096;-48
2024/01/22 03:38:06;;;;;;;26.40;4.30;;;9.30;99.90;;;;;;5067084;28;20037;-50
2024/01/22 03:40:31;;;;;;;20.17;3.33;;;9.30;99.90;;;;;;5067145;28;20025;-50
2024/01/22 03:42:57;;;;;;;20.73;3.25;;;9.30;99.90;;;;;;5067058;28;20100;-50
2024/01/22 03:45:23;;;;;;;23.10;3.72;;;9.30;99.90;;;;;;5067259;28;20225;-50
2024/01/22 03:47:48;;;;;;;18.75;3.42;;;9.30;99.90;;;;;;5065957;28;20017;-50
2024/01/22 03:50:14;;;;;;;28.40;4.28;;;9.30;99.90;;;;;;5067016;28;20029;-50
2024/01/22 03:52:40;;;;;;;22.30;3.67;;;9.20;99.90;;;;;;5066504;28;20091;-50
2024/01/22 03:55:07;;;;;;;22.20;4.15;;;9.20;99.90;;;;;;5066958;28;20029;-49
2024/01/22 03:57:33;;;;;;;21.45;3.08;;;9.20;99.90;;;;;;5066817;28;20036;-50
2024/01/22 03:59:58;;;;;;;24.13;3.78;;;9.20;99.90;;;;;;5066011;28;20179;-50
2024/01/22 04:02:24;;;;;;;18.33;3.17;;;9.20;99.90;;;;;;5066614;28;20029;-51
2024/01/22 04:04:50;;;;;;;18.65;3.25;;;9.20;99.90;;;;;;5066756;28;20021;-50
2024/01/22 04:07:16;;;;;;;19.20;3.38;;;9.20;99.90;;;;;;5066454;28;20088;-50
2024/01/22 04:09:41;;;;;;;20.70;3.65;;;9.20;99.90;;;;;;5066774;28;20325;-49
2024/01/22 04:12:07;;;;;;;16.02;3.28;;;9.20;99.90;;;;;;5066454;28;20029;-50
2024/01/22 04:14:33;;;;;;;18.63;2.92;;;9.20;99.90;;;;;;5066471;28;20127;-50
2024/01/22 04:16:58;;;;;;;22.20;2.80;;;9.20;99.90;;;;;;5065951;28;20211;-50
2024/01/22 04:19:24;;;;;;;12.98;2.65;;;9.20;99.90;;;;;;5065213;28;20260;-50
2024/01/22 04:21:50;;;;;;;14.23;3.00;;;9.20;99.90;;;;;;5066189;28;20024;-47
2024/01/22 04:24:15;;;;;;;23.88;3.50;;;9.20;99.90;;;;;;5065825;28;20035;-48
2024/01/22 04:26:41;;;;;;;20.50;3.17;;;9.10;99.90;;;;;;5066082;28;20211;-47
2024/01/22 04:29:07;;;;;;;20.02;3.15;;;9.10;99.90;;;;;;5066206;28;20092;-50
2024/01/22 04:31:33;;;;;;;15.00;2.75;;;9.10;99.90;;;;;;5066168;28;20106;-50
2024/01/22 04:33:58;;;;;;;21.42;2.80;;;9.00;99.90;;;;;;5066334;28;20183;-49
2024/01/22 04:36:24;;;;;;;18.15;3.50;;;9.00;99.90;;;;;;5065123;28;20036;-48
2024/01/22 04:38:51;;;;;;;13.57;2.72;;;9.00;99.90;;;;;;5066135;28;20017;-50
2024/01/22 04:41:16;;;;;;;16.30;2.70;;;8.90;99.90;;;;;;5065650;28;20071;-50
2024/01/22 04:43:42;;;;;;;16.10;2.72;;;8.90;99.90;;;;;;5066088;28;20376;-50
2024/01/22 04:46:08;;;;;;;18.20;3.83;;;8.80;99.90;;;;;;5065911;28;20200;-48
2024/01/22 04:48:34;;;;;;;20.50;3.45;;;8.80;99.90;;;;;;5065525;28;20035;-49
2024/01/22 04:50:59;;;;;;;19.23;3.97;;;8.80;99.90;;;;;;5065935;28;20137;-48
2024/01/22 04:53:25;;;;;;;24.27;3.53;;;8.80;99.90;;;;;;5065815;28;20094;-48
2024/01/22 04:55:50;;;;;;;19.63;3.92;;;8.80;99.90;;;;;;5065848;28;20321;-49
2024/01/22 04:58:16;;;;;;;20.38;2.75;;;8.80;99.90;;;;;;5065847;28;20360;-47
2024/01/22 05:01:34;;;;;;;23.10;4.75;;;8.80;99.90;;;;;;5065825;28;20179;-50
2024/01/22 05:04:00;;;;;;;20.30;2.83;;;8.80;99.90;;;;;;5065475;28;20286;-46
2024/01/22 05:06:25;;;;;;;20.08;2.85;;;8.70;99.90;;;;;;5064621;28;20031;-50
2024/01/22 05:08:51;;;;;;;18.73;3.83;;;8.70;99.90;;;;;;5064811;28;20035;-49
2024/01/22 05:11:16;;;;;;;18.27;3.03;;;8.80;99.90;;;;;;5065572;28;20036;-50
2024/01/22 05:13:52;;;;;;;15.02;3.00;;;8.70;99.90;;;;;;5065639;28;20271;-50
2024/01/22 05:16:18;;;;;;;19.85;3.90;;;8.80;99.90;;;;;;5065044;28;20041;-50
2024/01/22 05:18:44;;;;;;;19.52;2.70;;;8.80;99.90;;;;;;5065667;28;20142;-49
2024/01/22 05:21:10;;;;;;;13.07;2.55;;;8.80;99.90;;;;;;5065633;28;20044;-48
2024/01/22 05:23:36;;;;;;;18.08;3.15;;;8.80;99.90;;;;;;5065444;28;20055;-48
2024/01/22 05:26:02;;;;;;;17.15;3.00;;;8.90;99.90;;;;;;5065216;28;20029;-47
2024/01/22 05:28:28;;;;;;;15.70;2.72;;;8.90;99.90;;;;;;5065462;28;20033;-47
2024/01/22 05:30:53;;;;;;;16.30;2.58;;;8.90;99.90;;;;;;5065525;28;20079;-47
2024/01/22 05:33:19;;;;;;;19.00;3.20;;;8.90;99.90;;;;;;5065361;28;20067;-47
2024/01/22 05:35:44;;;;;;;19.13;2.78;;;8.90;99.90;;;;;;5065228;28;20029;-51
2024/01/22 05:38:10;;;;;;;16.80;3.10;;;8.90;99.90;;;;;;5065301;28;20036;-49
2024/01/22 05:40:36;;;;;;;17.40;3.13;;;8.90;99.90;;;;;;5068349;28;20029;-50
2024/01/22 05:43:02;;;;;;;19.92;3.05;;;8.90;99.90;;;;;;5069318;28;20085;-47
2024/01/22 05:45:27;;;;;;;19.17;4.07;;;8.90;99.90;;;;;;5068446;28;20132;-47
2024/01/22 05:47:53;;;;;;;12.15;2.67;;;8.80;99.90;;;;;;5068577;28;20195;-49
2024/01/22 05:50:19;;;;;;;18.35;3.35;;;8.70;99.90;;;;;;5069170;28;20031;-50
2024/01/22 05:52:44;;;;;;;17.75;3.30;;;8.70;99.90;;;;;;5069242;28;20212;-52
2024/01/22 05:55:10;;;;;;;18.23;2.63;;;8.60;99.90;;;;;;5069217;28;20160;-48
2024/01/22 05:57:36;;;;;;;23.88;3.88;;;8.60;99.90;;;;;;5069139;28;20025;-50
2024/01/22 06:00:09;;;;;;;24.20;3.63;;;8.60;99.90;;;;;;5068945;28;20292;-50
2024/01/22 06:02:38;;;;;;;22.48;3.05;;;8.50;99.90;;;;;;5068927;28;20301;-50
2024/01/22 06:05:03;;;;;;;22.52;3.67;;;8.50;99.90;;;;;;5068039;28;20021;-49
2024/01/22 06:07:29;;;;;;;19.33;3.20;;;8.50;99.90;;;;;;5068861;28;20271;-50
2024/01/22 06:09:55;;;;;;;24.27;3.80;;;8.50;99.90;;;;;;5068723;28;20070;-50
2024/01/22 06:12:20;;;;;;;20.88;2.72;;;8.60;99.90;;;;;;5067720;28;20033;-47
2024/01/22 06:14:46;;;;;;;19.60;3.35;;;8.60;99.90;;;;;;5068938;28;20021;-50
2024/01/22 06:17:12;;;;;;;23.45;3.60;;;8.60;99.90;;;;;;5068245;28;20052;-48
2024/01/22 06:19:37;;;;;;;16.88;3.50;;;8.60;99.90;;;;;;5068426;28;20036;-48
2024/01/22 06:22:03;;;;;;;19.10;3.80;;;8.60;99.90;;;;;;5067489;28;20088;-50
2024/01/22 06:24:29;;;;;;;20.70;3.83;;;8.60;99.90;;;;;;5068686;28;20025;-48
2024/01/22 06:26:55;;;;;;;15.82;3.20;;;8.60;99.90;;;;;;5068581;28;20036;-48
2024/01/22 06:29:20;;;;;;;21.25;3.53;;;8.50;99.90;;;;;;5068695;28;20021;-49
2024/01/22 06:31:46;;;;;;;15.23;3.70;;;8.50;99.90;;;;;;5068212;28;20047;-47
2024/01/22 06:34:12;;;;;;;22.85;3.92;;;8.50;99.90;;;;;;5068354;28;20086;-48
2024/01/22 06:36:40;;;;;;;13.77;2.75;;;8.50;99.90;;;;;;5068602;28;20156;-47
2024/01/22 06:39:08;;;;;;;22.13;3.90;;;8.50;99.90;;;;;;5067415;28;20303;-46
2024/01/22 06:41:34;;;;;;;19.67;3.38;;;8.50;99.90;;;;;;5068380;28;20032;-50
2024/01/22 06:44:00;;;;;;;26.73;3.22;;;8.50;99.90;;;;;;5068343;28;20183;-46
2024/01/22 06:46:25;;;;;;;23.10;4.32;;;8.50;99.90;;;;;;5068126;28;20084;-47
2024/01/22 06:48:51;;;;;;;27.10;4.28;;;8.60;99.90;;;;;;5066923;28;20075;-47
2024/01/22 06:51:17;;;;;;;18.08;3.03;;;8.60;99.90;;;;;;5066359;28;20029;-47
2024/01/22 06:53:43;;;;;;;21.02;3.03;;;8.60;99.90;;;;;;5067949;28;20021;-48
2024/01/22 06:56:09;;;;;;;19.15;3.03;;;8.60;99.90;;;;;;5066877;28;20033;-47
2024/01/22 06:58:35;;;;;;;14.00;2.30;;;8.60;99.90;;;;;;5067942;28;20021;-49
2024/01/22 07:01:00;;;;;;;13.75;2.50;;;8.60;99.90;;;;;;5068043;28;20044;-48
2024/01/22 07:03:26;;;;;;;21.80;3.60;;;8.60;99.90;;;;;;5066872;28;20041;-50
2024/01/22 07:05:52;;;;;;;21.35;3.55;;;8.60;99.90;;;;;;5067550;28;20017;-48
2024/01/22 07:08:18;;;;;;;20.08;3.38;;;8.60;99.90;;;;;;5066927;28;20021;-48
2024/01/22 07:10:44;;;;;;;26.15;3.88;;;8.50;99.90;;;;;;5066703;28;20032;-49
2024/01/22 07:13:10;;;;;;;20.48;3.20;;;8.50;99.90;;;;;;5067804;28;20187;-50
2024/01/22 07:15:36;;;;;;;18.55;3.92;;;8.50;99.90;;;;;;5066588;28;20080;-49
2024/01/22 07:18:02;;;;;;;17.52;3.10;;;8.40;99.90;;;;;;5067532;28;20029;-50
2024/01/22 07:20:28;;;;;;;21.42;3.42;;;8.40;99.90;;;;;;5066770;28;20021;-47
2024/01/22 07:22:54;;;;;;;22.95;3.90;;;8.50;99.90;;;;;;5067548;28;20047;-50
2024/01/22 07:25:19;;;;;;;12.52;2.50;;;8.50;99.90;;;;;;5067350;28;20036;-50
2024/01/22 07:27:45;;;;;;;12.95;2.97;;;8.50;99.90;;;;;;5067425;28;20142;-50
2024/01/22 07:30:12;;;;;;;16.92;3.15;;;8.50;99.90;;;;;;5067424;28;20025;-50
2024/01/22 07:32:41;;;;;;;21.70;3.80;;;8.50;99.90;;;;;;5066323;28;20032;-50
2024/01/22 07:35:08;;;;;;;32.65;3.65;;;8.40;99.90;;;;;;5067185;28;20021;-47
2024/01/22 07:37:37;;;;;;;10.20;2.58;;;8.50;99.90;;;;;;5067022;28;20020;-48
2024/01/22 07:40:04;;;;;;;14.82;3.72;;;8.40;99.90;;;;;;5066448;28;20028;-50
2024/01/22 07:42:33;;;;;;;17.88;3.33;;;8.40;99.90;;;;;;5067041;28;20029;-47
2024/01/22 07:44:59;;;;;;;18.42;4.03;;;8.40;99.90;;;;;;5066886;28;20282;-48
2024/01/22 07:47:25;;;;;;;16.48;3.30;;;8.50;99.90;;;;;;5066331;28;20033;-47
2024/01/22 07:49:51;;;;;;;17.00;2.92;;;8.50;99.90;;;;;;5065495;28;20025;-47
2024/01/22 07:52:16;;;;;;;14.80;3.35;;;8.50;99.90;;;;;;5066299;28;20021;-47
2024/01/22 07:54:42;;;;;;;19.90;3.80;;;8.50;99.90;;;;;;5066854;28;20035;-47
2024/01/22 07:57:11;;;;;;;20.25;3.42;;;8.40;99.90;;;;;;5066816;28;20029;-47
2024/01/22 07:59:39;;;;;;;18.73;3.35;;;8.40;99.90;;;;;;5066729;28;20020;-49
2024/01/22 08:02:05;;;;;;;17.73;3.50;;;8.40;99.90;;;;;;5064496;28;20036;-50
2024/01/22 08:04:31;;;;;;;21.52;4.10;;;8.40;99.90;;;;;;5066590;28;20037;-47
2024/01/22 08:07:00;;;;;;;16.27;3.38;;;8.40;99.90;;;;;;5066574;28;20084;-50
2024/01/22 08:09:26;;;;;;;20.42;3.55;;;8.40;99.90;;;;;;5066034;28;20083;-47
2024/01/22 08:11:52;;;;;;;22.13;3.17;;;8.40;99.90;;;;;;5066249;28;20282;-48
2024/01/22 08:14:18;;;;;;;13.48;2.90;;;8.40;99.90;;;;;;5066331;28;20035;-49
2024/01/22 08:16:45;;;;;;;28.15;3.83;;;8.40;99.90;;;;;;5066548;28;20116;-47
2024/01/22 08:19:11;;;;;;;14.30;2.88;;;8.30;99.90;;;;;;5065419;28;20029;-46
2024/01/22 08:21:37;;;;;;;22.73;4.07;;;8.30;99.90;;;;;;5066207;28;20028;-48
2024/01/22 08:24:03;;;;;;;22.40;3.17;;;8.30;99.90;;;;;;5065971;28;20103;-47
2024/01/22 08:26:28;;;;;;;20.70;4.38;;;8.30;99.90;;;;;;5066183;28;20025;-50
2024/01/22 08:28:54;;;;;;;21.40;3.65;;;8.30;99.90;;;;;;5066165;28;20032;-48
2024/01/22 08:31:20;;;;;;;21.90;4.20;;;8.30;99.90;;;;;;5066055;28;20059;-48
2024/01/22 08:33:45;;;;;;;22.67;5.05;;;8.40;99.90;;;;;;5066195;28;20095;-50
2024/01/22 08:36:11;;;;;;;14.68;3.42;;;8.40;99.90;;;;;;5066034;28;20160;-47
2024/01/22 08:38:37;;;;;;;20.33;3.88;;;8.40;99.90;;;;;;5064715;28;20294;-50
2024/01/22 08:41:08;;;;;;;21.33;4.15;;;8.50;99.90;;;;;;5065872;28;20029;-49
2024/01/22 08:43:33;;;;;;;17.67;3.58;;;8.50;99.90;;;;;;5065589;28;20107;-47
2024/01/22 08:45:59;;;;;;;14.10;2.58;;;8.50;99.90;;;;;;5065626;28;20036;-47
2024/01/22 08:48:25;;;;;;;20.45;3.65;;;8.50;99.90;;;;;;5065528;28;20032;-48
2024/01/22 08:50:51;;;;;;;14.65;3.08;;;8.40;99.90;;;;;;5065538;28;20017;-47
2024/01/22 08:53:17;;;;;;;21.02;2.90;;;8.40;99.90;;;;;;5064487;28;20164;-46
2024/01/22 08:55:42;;;;;;;16.65;2.85;;;8.40;99.90;;;;;;5065545;28;20028;-47
2024/01/22 08:58:09;;;;;;;13.65;2.30;;;8.40;99.90;;;;;;5065591;28;20028;-47
2024/01/22 09:00:35;;;;;;;13.98;2.70;;;8.40;99.90;;;;;;5064550;28;20037;-48
2024/01/22 09:03:01;;;;;;;14.65;2.65;;;8.40;99.90;;;;;;5065490;28;20040;-47
2024/01/22 09:05:27;;;;;;;14.75;2.55;;;8.50;99.90;;;;;;5065137;28;20041;-47
2024/01/22 09:07:52;;;;;;;19.40;3.35;;;8.50;99.90;;;;;;5065341;28;20278;-50
2024/01/22 09:10:18;;;;;;;20.15;3.58;;;8.50;99.90;;;;;;5065406;28;20025;-49
2024/01/22 09:12:45;;;;;;;20.17;2.92;;;8.50;99.90;;;;;;5065277;28;20266;-48
2024/01/22 09:15:11;;;;;;;13.10;2.25;;;8.60;99.90;;;;;;5065280;28;20168;-51
2024/01/22 09:17:37;;;;;;;12.88;2.70;;;8.60;99.90;;;;;;5064349;28;20037;-48
2024/01/22 09:20:04;;;;;;;13.68;2.95;;;8.70;99.90;;;;;;5065135;28;20179;-49
2024/01/22 09:22:30;;;;;;;11.70;2.35;;;8.70;99.90;;;;;;5065161;28;20021;-50
2024/01/22 09:24:55;;;;;;;14.50;3.05;;;8.70;99.90;;;;;;5065282;28;20029;-48
2024/01/22 09:27:21;;;;;;;11.25;2.25;;;8.70;99.90;;;;;;5065065;28;20025;-47
2024/01/22 09:29:47;;;;;;;14.45;3.08;;;8.70;99.90;;;;;;5064142;28;20028;-51
2024/01/22 09:32:13;;;;;;;11.88;2.50;;;8.80;99.90;;;;;;5065038;28;20172;-49
2024/01/22 09:34:39;;;;;;;18.88;2.53;;;8.80;99.90;;;;;;5065299;28;20021;-50
2024/01/22 09:37:05;;;;;;;18.17;3.90;;;8.80;99.90;;;;;;5065236;28;20033;-48
2024/01/22 09:39:31;;;;;;;15.05;2.88;;;8.80;99.90;;;;;;5065091;28;20021;-47
2024/01/22 09:41:57;;;;;;;18.40;2.95;;;8.80;99.90;;;;;;5064906;28;20080;-50
2024/01/22 09:44:24;;;;;;;14.93;3.47;;;8.90;99.90;;;;;;5064975;28;20032;-49
2024/01/22 09:46:49;;;;;;;22.52;4.00;;;8.90;99.90;;;;;;5065102;28;20116;-47
2024/01/22 09:49:15;;;;;;;18.23;3.35;;;8.90;99.90;;;;;;5064073;28;20031;-47
2024/01/22 09:51:42;;;;;;;13.85;2.25;;;9.00;99.90;;;;;;5065019;28;20075;-47
2024/01/22 09:54:08;;;;;;;18.92;2.90;;;9.00;99.90;;;;;;5064828;28;20029;-46
2024/01/22 09:56:34;;;;;;;17.25;3.92;;;9.10;99.90;;;;;;5064917;28;20203;-48
2024/01/22 09:59:01;;;;;;;18.75;3.33;;;9.20;99.90;;;;;;5047998;28;20029;-48
2024/01/22 10:01:27;;;;;;;11.90;2.55;;;9.40;99.90;;;;;;5063995;28;20033;-48
2024/01/22 10:03:53;;;;;;;14.07;2.72;;;9.50;99.90;;;;;;5064717;28;20278;-48
2024/01/22 10:06:21;;;;;;;18.63;3.03;;;9.30;99.90;;;;;;5063810;28;20035;-48
2024/01/22 10:08:57;;;;;;;14.75;2.63;;;9.10;99.90;;;;;;5064960;28;20027;-49
2024/01/22 10:11:23;;;;;;;14.13;2.78;;;9.00;99.90;;;;;;5063777;28;20024;-49
2024/01/22 10:13:52;;;;;;;14.05;2.72;;;8.90;99.90;;;;;;5064446;28;20139;-50
2024/01/22 10:16:18;;;;;;;18.03;2.77;;;8.90;99.90;;;;;;5064028;28;20106;-48
2024/01/22 10:18:55;;;;;;;22.60;3.25;;;9.00;99.90;;;;;;5064934;28;20040;-50
2024/01/22 10:21:21;;;;;;;12.60;2.10;;;9.00;99.90;;;;;;5064843;28;20033;-50
2024/01/22 10:24:00;;;;;;;15.48;2.78;;;9.00;99.90;;;;;;5064663;28;20087;-48
2024/01/22 10:26:25;;;;;;;25.95;2.92;;;9.00;99.90;;;;;;5067208;28;20033;-51
2024/01/22 10:28:52;;;;;;;11.88;2.65;;;9.00;99.90;;;;;;5068446;28;20336;-50
2024/01/22 10:31:18;;;;;;;10.93;1.98;;;8.90;99.90;;;;;;5068189;28;20036;-51
2024/01/22 10:33:44;;;;;;;27.75;4.88;;;8.90;99.90;;;;;;5066831;28;20083;-50
2024/01/22 10:36:17;;;;;;;21.40;2.75;;;8.90;99.90;;;;;;5068340;28;20036;-51
2024/01/22 10:38:47;;;;;;;13.93;2.22;;;8.90;99.90;;;;;;5067243;28;20290;-50
2024/01/22 10:41:19;;;;;;;10.80;2.58;;;8.90;99.90;;;;;;5066837;28;20056;-50
2024/01/22 10:43:45;;;;;;;16.52;2.65;;;9.00;99.90;;;;;;5067420;28;20029;-51
2024/01/22 10:46:11;;;;;;;11.73;2.28;;;9.00;99.90;;;;;;5067736;28;20028;-48
2024/01/22 10:48:37;;;;;;;11.57;2.28;;;9.00;99.90;;;;;;5067423;28;20028;-47
2024/01/22 10:51:03;;;;;;;16.90;3.05;;;9.00;99.90;;;;;;5067829;28;20029;-47
2024/01/22 10:53:29;;;;;;;13.27;2.65;;;8.90;99.90;;;;;;5050252;28;20182;-47
2024/01/22 10:56:00;;;;;;;10.35;2.47;;;8.90;99.90;;;;;;5066931;28;20029;-47
2024/01/22 10:58:30;;;;;;;10.50;2.20;;;8.90;99.90;;;;;;5066828;28;20229;-48
2024/01/22 11:01:02;;;;;;;13.90;2.05;;;9.00;99.90;;;;;;5067624;28;20283;-47
2024/01/22 11:03:28;;;;;;;9.45;1.92;;;9.00;99.90;;;;;;5067394;28;20096;-48
2024/01/22 11:05:56;;;;;;;20.83;3.97;;;9.00;99.90;;;;;;5066482;28;20020;-47
2024/01/22 11:08:22;;;;;;;18.27;2.75;;;9.00;99.90;;;;;;5050530;28;20193;-50
2024/01/22 11:10:47;;;;;;;16.17;2.63;;;9.00;99.90;;;;;;5066547;28;20036;-50
2024/01/22 11:13:13;;;;;;;16.45;2.60;;;9.00;99.90;;;;;;5049692;28;20035;-48
2024/01/22 11:15:39;;;;;;;10.75;2.78;;;8.90;99.90;;;;;;5067290;28;20071;-47
2024/01/22 11:18:08;;;;;;;13.18;2.30;;;8.90;99.90;;;;;;5067132;28;20057;-49
2024/01/22 11:20:34;;;;;;;14.45;2.83;;;9.00;99.90;;;;;;5066195;28;20025;-49
2024/01/22 11:23:15;;;;;;;13.70;2.40;;;9.00;99.90;;;;;;5067255;28;20047;-49
2024/01/22 11:25:40;;;;;;;14.20;5.72;;;8.90;99.90;;;;;;5067119;28;20063;-49
2024/01/22 11:28:09;;;;;;;20.73;5.05;;;8.80;99.90;;;;;;5067028;28;20021;-51
2024/01/22 11:30:44;;;;;;;19.92;4.03;;;8.80;99.90;;;;;;5067094;28;20051;-50
2024/01/22 11:33:25;;;;;;;33.00;11.23;;;8.80;99.90;;;;;;5067177;28;20118;-49
2024/01/22 11:35:51;;;;;;;22.02;4.10;;;8.90;99.90;;;;;;5066553;28;20189;-48
2024/01/22 11:38:36;;;;;;;37.15;13.80;;;8.90;99.90;;;;;;5065923;28;20056;-49
2024/01/22 11:41:01;;;;;;;108.93;41.72;;;9.10;99.90;;;;;;5066853;28;20028;-49
2024/01/22 11:43:27;;;;;;;40.78;17.15;;;9.20;99.90;;;;;;5066759;28;20047;-50
2024/01/22 11:45:56;;;;;;;70.63;29.58;;;9.30;99.90;;;;;;5066799;28;20021;-47
2024/01/22 11:48:22;;;;;;;17.17;5.77;;;9.30;99.90;;;;;;5066981;28;20074;-50
2024/01/22 11:51:01;;;;;;;16.40;4.25;;;9.40;99.90;;;;;;5066729;28;20047;-48
2024/01/22 11:53:27;;;;;;;13.27;3.40;;;9.30;99.90;;;;;;5066767;28;20181;-48
2024/01/22 11:55:59;;;;;;;17.70;3.17;;;9.50;99.90;;;;;;5066882;28;20036;-48
2024/01/22 11:58:25;;;;;;;15.98;4.63;;;9.60;99.90;;;;;;5065402;28;20036;-47
2024/01/22 12:00:52;;;;;;;20.25;6.32;;;9.80;99.90;;;;;;5066425;28;20074;-48
2024/01/22 12:03:26;;;;;;;13.07;3.17;;;10.90;99.90;;;;;;5065436;28;20037;-48
2024/01/22 12:06:05;;;;;;;14.32;4.72;;;11.50;99.90;;;;;;5066223;28;20040;-50
2024/01/22 12:08:31;;;;;;;11.82;3.25;;;12.30;99.90;;;;;;5065916;28;20029;-51
2024/01/22 12:11:11;;;;;;;15.77;5.30;;;13.10;99.90;;;;;;5065040;28;20032;-51
2024/01/22 12:13:39;;;;;;;13.50;3.28;;;12.60;99.90;;;;;;5065991;28;20186;-51
2024/01/22 12:16:26;;;;;;;13.70;2.83;;;13.90;99.90;;;;;;5064131;28;20364;-51
2024/01/22 12:18:51;;;;;;;14.43;3.20;;;12.70;99.90;;;;;;5065951;28;20354;-50
2024/01/22 12:21:17;;;;;;;18.48;3.28;;;11.80;99.90;;;;;;5064949;28;20083;-48
2024/01/22 12:23:43;;;;;;;22.70;9.02;;;11.10;99.90;;;;;;5065460;28;20033;-50
2024/01/22 12:26:13;;;;;;;15.73;3.90;;;10.60;99.90;;;;;;5066087;28;20059;-50
2024/01/22 12:28:39;;;;;;;20.35;2.72;;;10.30;99.90;;;;;;5065820;28;20017;-49
2024/01/22 12:31:05;;;;;;;17.60;3.22;;;10.30;99.90;;;;;;5065866;28;20025;-50
2024/01/22 12:33:31;;;;;;;9.52;2.20;;;10.00;99.90;;;;;;5065805;28;20172;-49
2024/01/22 12:36:11;;;;;;;16.33;3.63;;;10.20;99.90;;;;;;5065885;28;20049;-49
2024/01/22 12:38:47;;;;;;;17.15;3.13;;;10.20;99.90;;;;;;5064644;28;20029;-50
2024/01/22 12:41:14;;;;;;;28.45;12.80;;;10.60;99.90;;;;;;5064782;28;20036;-48
2024/01/22 12:43:40;;;;;;;27.15;6.82;;;11.60;99.90;;;;;;5065635;28;20037;-51